Time;durP1;ratioP1;P1;durP2;ratioP2;P2;SDS_P1;SDS_P2;PMS_P1;PMS_P2;Temp;Humidity;BMP_temperature;BMP_pressure;BME280_temperature;BME280_humidity;BME280_pressure;Samples;Min_cycle;Max_cycle;Signal;HPM_P1;HPM_P2
2021/06/17 00:01:07;;;;;;;6.90;3.87;;;;;;;13.08;80.10;95933.77;1787424;80;21071;-61
2021/06/17 00:03:34;;;;;;;8.37;4.90;;;;;;;13.10;79.51;95934.61;1787482;80;21006;-61
2021/06/17 00:06:00;;;;;;;6.63;4.17;;;;;;;13.16;79.25;95931.37;1787782;80;20998;-61
2021/06/17 00:08:27;;;;;;;6.43;3.80;;;;;;;13.18;79.24;95926.92;1787120;80;21066;-61
2021/06/17 00:10:55;;;;;;;6.80;4.50;;;;;;;13.23;79.06;95931.22;1787722;80;21011;-61
2021/06/17 00:13:27;;;;;;;4.90;3.90;;;;;;;13.25;79.33;95918.81;1787652;80;20975;-61
2021/06/17 00:15:58;;;;;;;5.67;4.77;;;;;;;13.18;79.03;95926.92;1787698;80;21113;-61
2021/06/17 00:18:27;;;;;;;9.70;4.20;;;;;;;13.09;79.85;95927.12;1787750;80;21520;-61
2021/06/17 00:20:54;;;;;;;5.63;4.57;;;;;;;13.07;80.12;95922.31;1787705;80;21007;-61
2021/06/17 00:23:21;;;;;;;5.00;4.23;;;;;;;13.08;79.91;95919.20;1787452;80;21046;-61
2021/06/17 00:25:48;;;;;;;6.20;5.60;;;;;;;12.99;79.88;95920.30;1787656;80;21011;-61
2021/06/17 00:28:15;;;;;;;5.57;4.40;;;;;;;12.96;80.03;95925.22;1787900;80;21460;-61
2021/06/17 00:30:42;;;;;;;7.13;5.20;;;;;;;12.91;79.81;95924.45;1787693;80;21066;-61
2021/06/17 00:33:09;;;;;;;7.27;5.07;;;;;;;12.88;79.71;95919.22;1792448;80;21492;-60
2021/06/17 00:35:36;;;;;;;5.63;4.57;;;;;;;12.95;79.37;95917.29;1793407;80;21057;-60
2021/06/17 00:38:04;;;;;;;5.50;4.90;;;;;;;12.92;79.32;95916.91;1793102;80;20986;-61
2021/06/17 00:40:33;;;;;;;5.07;4.30;;;;;;;12.89;79.12;95922.28;1793332;80;21002;-61
2021/06/17 00:43:01;;;;;;;7.20;5.37;;;;;;;12.83;78.73;95921.56;1793349;80;21002;-61
2021/06/17 00:45:35;;;;;;;5.90;4.30;;;;;;;12.60;80.60;95926.91;1792980;80;20990;-61
2021/06/17 00:48:04;;;;;;;7.13;5.30;;;;;;;12.54;80.31;95921.27;1793436;80;21010;-61
2021/06/17 00:50:36;;;;;;;5.00;4.40;;;;;;;12.46;80.49;95925.85;1793370;80;20986;-61
2021/06/17 00:53:10;;;;;;;6.23;5.07;;;;;;;12.46;80.65;95922.34;1791956;80;21006;-66
2021/06/17 00:55:39;;;;;;;6.50;4.13;;;;;;;12.52;80.09;95928.39;1792476;80;21045;-61
2021/06/17 00:58:06;;;;;;;4.73;4.23;;;;;;;12.52;80.75;95923.52;1793226;80;20982;-60
2021/06/17 01:00:34;;;;;;;9.00;4.77;;;;;;;12.47;80.71;95921.42;1793053;80;21401;-61
2021/06/17 01:03:01;;;;;;;7.77;4.77;;;;;;;12.46;81.18;95920.56;1793185;80;21010;-61
2021/06/17 01:05:28;;;;;;;5.00;4.10;;;;;;;12.47;81.44;95921.42;1793427;80;20974;-60
2021/06/17 01:08:08;;;;;;;6.60;4.37;;;;;;;12.46;80.90;95921.02;1793042;80;21018;-61
2021/06/17 01:10:50;;;;;;;5.47;4.07;;;;;;;12.48;81.21;95925.38;1793283;80;21006;-61
2021/06/17 01:13:56;;;;;;;4.47;4.07;;;;;;;12.48;81.02;95928.02;1792966;80;21105;-61
2021/06/17 01:16:49;;;;;;;5.07;4.00;;;;;;;12.51;80.56;95925.77;1793279;80;21037;-61
2021/06/17 01:19:40;;;;;;;4.78;3.80;;;;;;;12.51;80.29;95924.44;1793315;80;21054;-60
2021/06/17 01:22:33;;;;;;;5.30;3.93;;;;;;;12.47;80.94;95926.29;1792696;80;21034;-60
2021/06/17 01:25:29;;;;;;;6.22;3.80;;;;;;;12.38;81.08;95925.14;1793032;80;21026;-61
2021/06/17 01:28:11;;;;;;;4.47;3.90;;;;;;;12.33;81.21;95925.23;1793019;80;21045;-61
2021/06/17 01:31:13;;;;;;;6.43;4.27;;;;;;;12.25;81.05;95922.34;1793529;80;21089;-61
2021/06/17 01:33:47;;;;;;;7.73;4.00;;;;;;;12.32;80.65;95920.86;1796160;79;21548;-61
2021/06/17 01:36:20;;;;;;;4.10;3.57;;;;;;;12.43;80.41;95923.27;1796249;80;20966;-61
2021/06/17 01:38:53;;;;;;;6.30;4.08;;;;;;;12.54;80.23;95917.30;1791709;80;21026;-61
2021/06/17 01:41:24;;;;;;;5.90;3.90;;;;;;;12.49;80.52;95914.33;1796215;80;21045;-61
2021/06/17 01:43:51;;;;;;;5.33;3.87;;;;;;;12.45;80.85;95918.83;1796279;80;21022;-61
2021/06/17 01:46:18;;;;;;;6.37;4.07;;;;;;;12.38;80.99;95918.53;1796217;80;21041;-61
2021/06/17 01:48:48;;;;;;;4.53;3.73;;;;;;;12.37;81.06;95918.55;1816097;79;21014;-61
2021/06/17 01:51:22;;;;;;;6.63;4.53;;;;;;;12.42;80.97;95918.86;1796285;80;21002;-61
2021/06/17 01:53:50;;;;;;;5.37;4.43;;;;;;;12.35;80.34;95919.92;1795848;80;21050;-60
2021/06/17 01:56:21;;;;;;;5.67;4.20;;;;;;;12.32;81.00;95917.31;1796136;80;21010;-61
2021/06/17 01:58:53;;;;;;;4.90;4.40;;;;;;;12.24;81.05;95915.28;1796305;80;21026;-60
2021/06/17 02:01:23;;;;;;;7.27;4.57;;;;;;;12.24;80.83;95925.86;1796342;80;21022;-61
2021/06/17 02:03:51;;;;;;;5.33;4.10;;;;;;;12.20;80.42;95911.84;1796218;80;20970;-61
2021/06/17 02:06:19;;;;;;;7.33;4.63;;;;;;;12.17;80.39;95920.27;1795956;80;21062;-61
2021/06/17 02:08:52;;;;;;;6.37;4.27;;;;;;;12.05;81.17;95922.72;1796052;80;21014;-61
2021/06/17 02:11:22;;;;;;;8.15;4.37;;;;;;;12.00;80.74;95921.48;1795949;80;21038;-60
2021/06/17 02:13:51;;;;;;;7.77;4.83;;;;;;;11.87;81.87;95919.52;1796788;80;21021;-61
2021/06/17 02:16:19;;;;;;;8.03;5.20;;;;;;;11.86;81.57;95930.97;1796193;80;20986;-61
2021/06/17 02:18:48;;;;;;;5.27;4.37;;;;;;;11.85;81.38;95923.05;1796225;80;21018;-60
2021/06/17 02:21:16;;;;;;;6.80;5.23;;;;;;;11.81;82.16;95925.32;1796265;80;20990;-60
2021/06/17 02:23:51;;;;;;;6.03;5.17;;;;;;;11.82;82.06;95925.77;1795963;80;21037;-61
2021/06/17 02:26:19;;;;;;;8.40;4.97;;;;;;;11.83;82.23;95915.59;1796399;80;21555;-60
2021/06/17 02:28:48;;;;;;;6.07;5.40;;;;;;;11.81;82.33;95916.06;1796300;79;21057;-61
2021/06/17 02:31:22;;;;;;;5.80;5.27;;;;;;;11.85;81.76;95920.41;1796049;80;21002;-61
2021/06/17 02:33:50;;;;;;;6.00;5.20;;;;;;;11.86;82.01;95912.89;1788532;79;21058;-61
2021/06/17 02:36:22;;;;;;;9.63;5.10;;;;;;;11.83;82.29;95908.98;1787750;80;20982;-60
2021/06/17 02:38:49;;;;;;;11.47;5.37;;;;;;;11.81;82.22;95908.14;1787626;79;21595;-61
2021/06/17 02:41:19;;;;;;;5.73;4.33;;;;;;;11.79;82.21;95907.28;1787629;80;20994;-61
2021/06/17 02:43:49;;;;;;;6.33;4.37;;;;;;;11.76;82.43;95909.99;1787785;80;21010;-60
2021/06/17 02:46:16;;;;;;;5.63;4.17;;;;;;;11.70;82.54;95910.53;1787429;80;21011;-60
2021/06/17 02:48:42;;;;;;;6.07;4.70;;;;;;;11.68;82.83;95911.00;1787318;80;21046;-61
2021/06/17 02:51:09;;;;;;;4.53;4.07;;;;;;;11.69;82.70;95906.16;1787096;80;21033;-62
2021/06/17 02:53:36;;;;;;;4.87;4.37;;;;;;;11.81;82.42;95910.78;1787714;80;21105;-60
2021/06/17 02:56:08;;;;;;;5.07;3.80;;;;;;;11.87;81.85;95906.75;1787790;80;20959;-60
2021/06/17 02:59:06;;;;;;;5.00;4.50;;;;;;;11.85;81.68;95905.41;1787620;80;21033;-60
2021/06/17 03:01:53;;;;;;;4.23;3.70;;;;;;;11.80;82.77;95901.98;1787895;80;21469;-60
2021/06/17 03:04:52;;;;;;;3.93;3.60;;;;;;;11.85;82.35;95900.58;1787587;80;21054;-61
2021/06/17 03:07:26;;;;;;;4.50;4.10;;;;;;;11.89;82.42;95912.44;1780842;80;21054;-61
2021/06/17 03:10:01;;;;;;;4.80;4.30;;;;;;;11.99;82.07;95909.14;1787733;80;21520;-60
2021/06/17 03:12:28;;;;;;;5.67;4.40;;;;;;;12.09;81.77;95917.77;1787645;80;20982;-60
2021/06/17 03:14:59;;;;;;;4.57;4.17;;;;;;;12.15;81.45;95913.70;1788153;80;21494;-61
2021/06/17 03:17:28;;;;;;;6.03;4.33;;;;;;;12.24;81.27;95912.64;1787899;80;21018;-60
2021/06/17 03:19:57;;;;;;;4.60;4.17;;;;;;;12.33;81.21;95905.84;1787690;80;20966;-60
2021/06/17 03:22:26;;;;;;;5.17;4.63;;;;;;;12.32;81.42;95913.34;1782609;80;20971;-61
2021/06/17 03:24:57;;;;;;;5.30;3.83;;;;;;;12.31;81.74;95912.94;1787549;80;21013;-61
2021/06/17 03:27:25;;;;;;;7.90;4.70;;;;;;;12.16;81.55;95915.44;1787462;80;21034;-61
2021/06/17 03:29:52;;;;;;;5.93;4.57;;;;;;;12.23;81.11;95906.94;1787942;80;21516;-61
2021/06/17 03:32:22;;;;;;;5.63;4.40;;;;;;;12.35;82.07;95904.05;1787633;80;21536;-61
2021/06/17 03:34:51;;;;;;;5.50;4.23;;;;;;;12.49;82.31;95904.61;1787356;80;21543;-60
2021/06/17 03:37:20;;;;;;;8.43;4.33;;;;;;;12.69;81.91;95908.61;1787766;80;21006;-60
2021/06/17 03:39:49;;;;;;;4.53;4.10;;;;;;;12.72;81.37;95912.05;1787624;80;21014;-60
2021/06/17 03:42:16;;;;;;;9.23;4.67;;;;;;;12.78;81.76;95917.69;1782490;80;21006;-61
2021/06/17 03:44:44;;;;;;;6.13;4.60;;;;;;;12.86;81.96;95907.79;1787913;80;21457;-61
2021/06/17 03:47:11;;;;;;;5.30;4.60;;;;;;;12.93;82.23;95916.48;1782438;80;21103;-61
2021/06/17 03:49:41;;;;;;;6.10;5.50;;;;;;;13.12;81.63;95916.91;1787675;80;20979;-61
2021/06/17 03:52:08;;;;;;;6.23;5.40;;;;;;;13.26;81.28;95916.14;1788013;80;21022;-61
2021/06/17 03:54:36;;;;;;;6.67;5.60;;;;;;;13.35;81.12;95917.72;1787602;80;21081;-61
2021/06/17 03:57:06;;;;;;;6.47;5.10;;;;;;;13.42;81.02;95909.58;1787923;80;21592;-61
2021/06/17 03:59:39;;;;;;;6.57;5.17;;;;;;;13.49;80.90;95912.09;1787775;80;21022;-61
2021/06/17 04:02:06;;;;;;;6.03;5.20;;;;;;;13.56;80.94;95914.55;1787722;80;21037;-61
2021/06/17 04:04:34;;;;;;;6.30;5.20;;;;;;;13.60;80.79;95896.77;1787556;80;21481;-62
2021/06/17 04:07:05;;;;;;;7.00;5.73;;;;;;;13.60;80.48;95910.03;1782737;80;21037;-62
2021/06/17 04:09:36;;;;;;;6.60;6.00;;;;;;;13.63;80.44;95914.81;1787461;80;21025;-61
2021/06/17 04:12:13;;;;;;;7.00;6.27;;;;;;;13.77;80.86;95920.22;1787795;80;21058;-61
2021/06/17 04:14:46;;;;;;;8.40;5.53;;;;;;;13.88;80.82;95926.56;1757266;80;21026;-61
2021/06/17 04:17:22;;;;;;;6.05;5.45;;;;;;;13.95;80.77;95930.33;1787707;80;20998;-62
2021/06/17 04:19:50;;;;;;;7.67;5.50;;;;;;;14.05;80.49;95937.59;1787907;80;21030;-63
2021/06/17 04:22:19;;;;;;;6.83;5.73;;;;;;;14.11;80.14;95941.43;1787830;80;20980;-62
2021/06/17 04:24:54;;;;;;;6.27;5.30;;;;;;;14.19;80.44;95939.44;1807490;79;21050;-63
2021/06/17 04:27:23;;;;;;;6.47;5.67;;;;;;;14.26;80.26;95945.42;1786413;80;21006;-63
2021/06/17 04:29:52;;;;;;;5.77;5.20;;;;;;;14.32;80.49;95947.92;1787692;80;21046;-62
2021/06/17 04:32:19;;;;;;;7.63;5.90;;;;;;;14.38;80.19;95949.53;1757417;80;20939;-63
2021/06/17 04:34:48;;;;;;;6.97;4.80;;;;;;;14.48;79.84;95939.93;1787909;80;21130;-63
2021/06/17 04:37:22;;;;;;;6.17;5.20;;;;;;;14.59;79.51;95938.78;1787513;80;20951;-63
2021/06/17 04:39:48;;;;;;;5.55;4.37;;;;;;;14.67;79.08;95942.12;1787785;80;21500;-63
2021/06/17 04:42:16;;;;;;;5.63;4.60;;;;;;;14.76;78.73;95940.96;1787866;80;20998;-62
2021/06/17 04:44:45;;;;;;;8.93;4.73;;;;;;;14.90;78.23;95933.46;1787293;80;21027;-62
2021/06/17 04:47:17;;;;;;;5.07;4.13;;;;;;;15.07;78.24;95932.95;1787685;80;20987;-62
2021/06/17 04:49:44;;;;;;;6.47;4.33;;;;;;;15.26;77.79;95931.91;1787886;80;21537;-62
2021/06/17 04:52:21;;;;;;;4.95;3.90;;;;;;;15.38;78.61;95934.18;1787619;80;20947;-62
2021/06/17 04:54:48;;;;;;;7.17;4.00;;;;;;;15.49;77.85;95940.02;1787674;80;21528;-62
2021/06/17 04:57:14;;;;;;;3.92;3.50;;;;;;;15.53;77.33;95942.12;1787374;80;20975;-62
2021/06/17 04:59:41;;;;;;;5.97;3.80;;;;;;;15.56;77.32;95952.66;1787666;80;21010;-62
2021/06/17 05:02:08;;;;;;;5.35;4.60;;;;;;;15.58;77.59;95954.81;1787546;80;20982;-65
2021/06/17 05:04:35;;;;;;;6.45;3.92;;;;;;;15.64;77.93;95961.72;1787390;80;21007;-65
2021/06/17 05:12:14;;;;;;;11.65;4.20;;;;;;;15.46;79.44;95968.04;1787655;80;21038;-63
2021/06/17 05:14:40;;;;;;;5.10;3.87;;;;;;;15.53;79.41;95970.92;1787699;80;21087;-63
2021/06/17 05:17:07;;;;;;;4.20;3.80;;;;;;;15.64;79.05;95966.57;1787564;80;20979;-66
2021/06/17 05:19:33;;;;;;;4.42;3.80;;;;;;;15.68;78.11;95957.59;1787990;80;21548;-66
2021/06/17 05:22:00;;;;;;;4.72;3.87;;;;;;;15.78;77.38;95964.38;1787649;80;21003;-65
2021/06/17 05:24:27;;;;;;;5.05;4.00;;;;;;;15.87;76.99;95967.17;1787595;80;21030;-67
2021/06/17 05:26:54;;;;;;;6.45;4.10;;;;;;;15.95;77.01;95974.90;1787319;80;21065;-66
2021/06/17 05:29:21;;;;;;;4.60;4.00;;;;;;;16.07;76.67;95971.83;1787891;80;21014;-66
2021/06/17 05:31:48;;;;;;;6.58;4.70;;;;;;;16.17;75.37;95980.38;1787759;80;20979;-63
2021/06/17 05:34:15;;;;;;;7.45;4.53;;;;;;;16.23;75.55;95978.84;1787136;80;21018;-63
2021/06/17 05:36:41;;;;;;;6.05;4.55;;;;;;;16.40;75.64;95985.79;1787649;80;21436;-62
2021/06/17 05:39:08;;;;;;;5.92;4.78;;;;;;;16.57;75.41;95984.30;1787306;80;21543;-64
2021/06/17 05:41:35;;;;;;;6.28;4.92;;;;;;;16.67;75.07;95989.70;1787419;80;20990;-64
2021/06/17 05:44:01;;;;;;;4.47;4.08;;;;;;;16.76;74.40;95993.84;1787297;80;21046;-64
2021/06/17 05:46:28;;;;;;;5.80;4.80;;;;;;;16.80;74.20;95995.02;1787344;80;21504;-64
2021/06/17 05:48:55;;;;;;;4.78;4.30;;;;;;;16.85;73.55;95990.86;1787184;80;21022;-65
2021/06/17 05:51:21;;;;;;;5.55;4.78;;;;;;;16.86;73.44;95994.81;1787754;80;20987;-66
2021/06/17 05:53:48;;;;;;;4.95;4.33;;;;;;;16.89;73.74;95990.30;1787512;80;21000;-64
2021/06/17 05:56:14;;;;;;;5.75;4.75;;;;;;;16.99;74.21;95992.55;1787323;80;21590;-64
2021/06/17 05:58:41;;;;;;;7.30;4.90;;;;;;;17.09;73.77;95994.42;1787214;80;21559;-64
2021/06/17 06:01:08;;;;;;;8.00;5.00;;;;;;;17.14;73.68;95994.25;1787518;80;21002;-64
2021/06/17 06:03:34;;;;;;;5.12;4.55;;;;;;;17.21;73.50;95987.73;1787285;80;21063;-63
2021/06/17 06:06:01;;;;;;;5.95;5.12;;;;;;;17.30;73.99;95995.38;1787549;80;21074;-64
2021/06/17 06:08:28;;;;;;;6.67;4.90;;;;;;;17.44;73.75;95993.53;1787180;80;21023;-64
2021/06/17 06:10:55;;;;;;;6.55;5.03;;;;;;;17.61;73.46;95995.51;1787259;80;21023;-64
2021/06/17 06:13:22;;;;;;;8.65;4.92;;;;;;;17.72;72.14;95995.97;1787580;80;21002;-63
2021/06/17 06:15:48;;;;;;;16.87;5.08;;;;;;;17.87;71.91;95996.70;1787329;80;21015;-63
2021/06/17 06:18:16;;;;;;;9.40;5.40;;;;;;;18.03;71.19;96005.42;1787757;80;21583;-65
2021/06/17 06:20:46;;;;;;;9.23;5.10;;;;;;;18.11;70.67;96003.29;1787584;80;20995;-66
2021/06/17 06:23:16;;;;;;;15.08;5.28;;;;;;;18.18;70.17;95995.43;1787270;79;21003;-63
2021/06/17 06:25:47;;;;;;;10.05;5.08;;;;;;;18.28;69.35;95999.92;1782546;80;21033;-61
2021/06/17 06:28:11;;;;;;;6.15;4.47;;;;;;;18.35;69.42;96002.73;1788264;79;21472;-63
2021/06/17 06:30:38;;;;;;;14.28;5.65;;;;;;;18.44;69.69;95998.31;1787583;80;21082;-61
2021/06/17 06:33:05;;;;;;;8.48;4.40;;;;;;;18.57;69.47;95995.97;1787664;80;20982;-64
2021/06/17 06:35:31;;;;;;;6.70;3.87;;;;;;;18.65;68.27;95995.20;1787425;80;21058;-64
2021/06/17 06:37:57;;;;;;;8.20;5.35;;;;;;;18.73;69.34;95994.38;1784226;80;21054;-65
2021/06/17 06:40:25;;;;;;;4.58;4.10;;;;;;;18.81;65.90;96001.61;1747681;82;20986;-65
2021/06/17 06:42:54;;;;;;;10.58;4.53;;;;;;;18.95;67.53;96004.12;1747281;82;21075;-64
2021/06/17 06:45:22;;;;;;;6.22;3.83;;;;;;;19.14;67.57;96001.50;1753599;80;21039;-63
2021/06/17 06:47:51;;;;;;;9.70;4.60;;;;;;;19.24;65.88;96006.83;1745652;82;21031;-63
2021/06/17 06:50:18;;;;;;;4.78;4.33;;;;;;;19.31;66.14;96001.59;1745832;82;21162;-63
2021/06/17 06:52:46;;;;;;;5.42;4.92;;;;;;;19.39;65.00;95994.07;1745533;82;21502;-63
2021/06/17 06:55:13;;;;;;;11.85;4.90;;;;;;;19.54;65.78;95997.83;1724558;82;21516;-64
2021/06/17 06:57:41;;;;;;;4.85;4.33;;;;;;;19.58;65.04;95999.87;1745448;82;21070;-66
2021/06/17 07:00:12;;;;;;;7.20;4.78;;;;;;;19.85;65.42;95997.72;1724559;83;21008;-62
2021/06/17 07:02:39;;;;;;;5.33;4.58;;;;;;;19.96;64.22;96002.09;1752920;80;20943;-67
2021/06/17 07:05:08;;;;;;;7.15;4.10;;;;;;;20.07;64.51;95994.86;1777999;80;21053;-63
2021/06/17 07:07:35;;;;;;;5.90;4.47;;;;;;;20.07;64.51;95994.86;1721789;82;21071;-62
2021/06/17 07:10:04;;;;;;;6.08;4.65;;;;;;;20.25;64.45;96003.31;1761011;81;21393;-62
2021/06/17 07:12:31;;;;;;;5.20;4.70;;;;;;;20.53;63.02;96005.45;1743730;82;21002;-61
2021/06/17 07:14:58;;;;;;;6.90;4.20;;;;;;;20.53;63.02;96005.45;1754068;81;20936;-61
2021/06/17 07:17:26;;;;;;;6.83;4.03;;;;;;;20.82;63.24;96000.92;1754629;81;20990;-61
2021/06/17 07:19:55;;;;;;;5.58;4.10;;;;;;;20.82;63.24;96000.92;1758100;81;21481;-61
2021/06/17 07:22:23;;;;;;;5.28;4.25;;;;;;;20.93;62.26;96010.59;1758974;81;21058;-61
2021/06/17 07:24:53;;;;;;;4.37;3.98;;;;;;;21.11;61.93;96014.97;1763025;81;21558;-62
2021/06/17 07:27:21;;;;;;;6.17;4.15;;;;;;;21.22;60.15;96017.10;1763149;81;21513;-63
2021/06/17 07:29:48;;;;;;;8.03;3.85;;;;;;;21.37;60.17;96020.29;1758417;81;21030;-63
2021/06/17 07:32:15;;;;;;;9.15;4.22;;;;;;;21.56;60.53;96018.82;1763029;81;21070;-64
2021/06/17 07:34:44;;;;;;;5.50;3.45;;;;;;;21.60;56.91;96019.53;1763292;81;20979;-67
2021/06/17 07:37:10;;;;;;;5.78;3.60;;;;;;;21.76;58.95;96015.02;1762985;81;21026;-62
2021/06/17 07:39:37;;;;;;;7.37;4.12;;;;;;;21.84;57.97;96011.91;1762841;81;21542;-63
2021/06/17 07:42:05;;;;;;;5.17;3.83;;;;;;;21.93;57.57;96007.84;1758049;81;20995;-64
2021/06/17 07:44:32;;;;;;;5.20;3.95;;;;;;;21.99;56.15;96007.48;1744654;82;20994;-63
2021/06/17 07:46:59;;;;;;;7.15;3.60;;;;;;;22.19;59.19;96001.86;1754360;81;21026;-66
2021/06/17 07:49:26;;;;;;;4.92;3.70;;;;;;;22.47;56.69;95993.52;1755638;81;21027;-64
2021/06/17 07:51:52;;;;;;;5.97;3.72;;;;;;;22.62;53.39;95991.25;1759720;81;21003;-65
2021/06/17 07:54:19;;;;;;;6.75;3.62;;;;;;;22.72;55.53;95990.22;1757095;81;21054;-62
2021/06/17 07:56:50;;;;;;;6.72;3.52;;;;;;;22.68;53.19;95981.48;1761030;81;21027;-64
2021/06/17 07:59:22;;;;;;;5.62;3.85;;;;;;;22.75;55.05;95986.00;1763247;81;20991;-62
2021/06/17 08:01:48;;;;;;;4.03;3.60;;;;;;;22.85;55.12;95986.30;1762062;81;21022;-62
2021/06/17 08:04:14;;;;;;;4.87;3.37;;;;;;;22.84;53.22;95984.59;1763124;81;21011;-62
2021/06/17 08:06:41;;;;;;;6.40;3.72;;;;;;;22.84;53.61;95987.28;1763300;81;21539;-62
2021/06/17 08:09:07;;;;;;;10.55;3.70;;;;;;;22.94;55.43;95987.59;1763325;81;20979;-62
2021/06/17 08:11:34;;;;;;;6.37;3.33;;;;;;;23.08;56.08;95984.47;1762957;81;21034;-62
2021/06/17 08:14:01;;;;;;;4.92;3.30;;;;;;;23.30;55.09;95975.89;1763179;81;21014;-64
2021/06/17 08:16:27;;;;;;;6.78;3.47;;;;;;;23.66;56.27;95980.38;1763255;81;21133;-63
2021/06/17 08:18:54;;;;;;;6.87;3.83;;;;;;;23.83;54.37;95976.63;1763451;81;21437;-61
2021/06/17 08:21:24;;;;;;;13.93;3.92;;;;;;;23.96;54.84;95974.85;1763341;81;21042;-62
2021/06/17 08:23:54;;;;;;;4.45;3.83;;;;;;;23.99;52.55;95976.03;1763395;81;21014;-64
2021/06/17 08:26:19;;;;;;;4.37;3.87;;;;;;;24.14;53.75;95975.00;1763452;81;21014;-61
2021/06/17 08:28:46;;;;;;;5.47;3.50;;;;;;;24.25;53.99;95974.28;1763371;81;21074;-62
2021/06/17 08:31:13;;;;;;;5.53;3.98;;;;;;;24.19;50.80;95977.37;1763043;81;21509;-63
2021/06/17 08:33:39;;;;;;;7.90;3.67;;;;;;;24.39;52.95;95982.33;1763008;81;21090;-61
2021/06/17 08:36:08;;;;;;;7.33;4.45;;;;;;;24.39;51.75;95980.97;1763365;81;21045;-63
2021/06/17 08:38:36;;;;;;;5.42;3.25;;;;;;;24.39;51.51;95983.67;1763073;81;21600;-63
2021/06/17 08:41:04;;;;;;;3.72;3.15;;;;;;;24.41;51.43;95987.59;1763200;81;21050;-64
2021/06/17 08:43:31;;;;;;;4.87;3.35;;;;;;;24.32;51.00;95985.05;1763427;81;21135;-63
2021/06/17 08:45:58;;;;;;;5.00;3.60;;;;;;;24.38;50.46;95979.72;1734313;81;21093;-62
2021/06/17 08:48:25;;;;;;;5.00;3.62;;;;;;;24.32;50.48;95986.88;1753259;81;21032;-62
2021/06/17 08:50:54;;;;;;;4.10;3.70;;;;;;;24.26;52.79;95988.13;1763320;81;21022;-61
2021/06/17 08:53:22;;;;;;;4.58;3.90;;;;;;;24.27;52.12;95987.19;1763335;81;21011;-61
2021/06/17 08:55:49;;;;;;;6.37;4.00;;;;;;;24.29;52.10;95989.76;1763088;81;21501;-63
2021/06/17 08:58:16;;;;;;;4.65;4.15;;;;;;;24.37;51.71;95998.23;1762881;81;21010;-62
2021/06/17 09:00:47;;;;;;;8.68;3.92;;;;;;;24.39;51.07;95990.88;1763317;81;21006;-63
2021/06/17 09:03:17;;;;;;;4.80;4.05;;;;;;;24.43;51.81;95991.55;1763352;81;21477;-63
2021/06/17 09:05:54;;;;;;;5.87;4.47;;;;;;;24.57;51.95;95988.34;1763438;81;21480;-63
2021/06/17 09:08:26;;;;;;;5.55;4.05;;;;;;;24.68;53.44;95986.24;1763455;81;21027;-62
2021/06/17 09:10:54;;;;;;;4.60;4.00;;;;;;;24.96;53.18;95988.39;1763321;81;21564;-63
2021/06/17 09:13:31;;;;;;;6.28;4.28;;;;;;;25.09;51.49;95996.50;1763176;81;21062;-62
2021/06/17 09:15:59;;;;;;;6.22;3.70;;;;;;;25.04;52.55;95997.67;1751572;81;21074;-63
2021/06/17 09:18:30;;;;;;;6.17;4.47;;;;;;;24.98;51.73;95997.25;1747703;82;21038;-63
2021/06/17 09:21:08;;;;;;;6.12;3.90;;;;;;;24.87;49.25;95993.06;1746913;82;21493;-63
2021/06/17 09:23:45;;;;;;;6.80;4.05;;;;;;;24.80;49.96;96006.14;1746579;82;21033;-63
2021/06/17 09:26:21;;;;;;;6.92;4.33;;;;;;;24.65;49.98;95995.05;1746161;82;21071;-63
2021/06/17 09:29:05;;;;;;;6.00;4.05;;;;;;;24.66;51.52;95995.41;1747972;82;21093;-64
2021/06/17 09:31:39;;;;;;;5.62;3.55;;;;;;;24.73;52.62;95994.89;1748044;82;21082;-62
2021/06/17 09:34:07;;;;;;;4.10;3.70;;;;;;;24.68;51.59;96004.27;1749067;82;21038;-63
2021/06/17 09:36:35;;;;;;;6.53;3.60;;;;;;;24.77;52.18;96003.62;1751825;82;20980;-62
2021/06/17 09:39:21;;;;;;;5.37;3.60;;;;;;;25.09;51.04;96007.30;1751660;82;21038;-62
2021/06/17 09:41:52;;;;;;;4.58;3.75;;;;;;;25.24;50.33;96009.81;1728783;83;21955;-62
2021/06/17 09:44:32;;;;;;;3.92;3.58;;;;;;;25.44;50.58;96006.19;1746123;82;21580;-62
2021/06/17 09:47:22;;;;;;;4.90;4.00;;;;;;;25.51;49.42;96012.89;1729661;83;21025;-62
2021/06/17 09:49:51;;;;;;;5.58;3.45;;;;;;;25.48;48.93;96013.11;1706099;82;21521;-62
2021/06/17 09:52:19;;;;;;;4.30;3.58;;;;;;;25.38;49.51;96014.75;1729688;83;21050;-62
2021/06/17 09:54:49;;;;;;;5.95;3.33;;;;;;;25.34;49.56;96010.02;1745969;82;21123;-62
2021/06/17 09:57:19;;;;;;;4.70;4.00;;;;;;;25.40;49.78;96012.31;1729669;83;20962;-63
2021/06/17 09:59:58;;;;;;;4.78;3.77;;;;;;;25.55;51.68;96013.52;1745754;82;20976;-62
2021/06/17 10:02:34;;;;;;;4.10;3.70;;;;;;;25.81;50.77;96004.41;1727135;83;21005;-62
2021/06/17 10:05:22;;;;;;;3.40;3.10;;;;;;;25.86;51.83;96005.47;1745943;82;21066;-62
2021/06/17 10:07:51;;;;;;;4.55;4.12;;;;;;;26.16;50.28;96003.70;1729728;83;21436;-62
2021/06/17 10:10:26;;;;;;;7.80;3.77;;;;;;;26.39;48.72;95988.45;1727489;83;21046;-62
2021/06/17 10:12:53;;;;;;;4.40;3.22;;;;;;;26.51;49.14;95990.69;1745932;82;21047;-63
2021/06/17 10:15:20;;;;;;;5.70;3.15;;;;;;;26.62;46.03;95997.55;1729570;83;20989;-62
2021/06/17 10:17:47;;;;;;;5.72;3.40;;;;;;;26.82;46.28;95989.27;1745717;82;21031;-62
2021/06/17 10:20:14;;;;;;;3.33;3.02;;;;;;;26.96;45.67;95989.06;1701201;83;20986;-63
2021/06/17 10:22:44;;;;;;;3.10;2.80;;;;;;;27.00;46.53;95986.97;1745897;82;20999;-62
2021/06/17 10:25:22;;;;;;;3.87;3.08;;;;;;;27.12;44.46;95986.52;1729786;83;21068;-62
2021/06/17 10:27:50;;;;;;;6.62;2.92;;;;;;;27.14;43.52;95984.52;1743394;82;21049;-62
2021/06/17 10:30:21;;;;;;;5.40;2.87;;;;;;;27.24;44.62;95980.62;1730071;83;21540;-62
2021/06/17 10:32:51;;;;;;;3.02;2.75;;;;;;;27.07;40.81;95980.59;1742616;82;21035;-63
2021/06/17 10:35:27;;;;;;;3.58;3.10;;;;;;;26.87;41.75;95972.67;1735286;82;21509;-62
2021/06/17 10:38:02;;;;;;;3.17;2.87;;;;;;;26.80;43.35;95980.39;1770874;81;21075;-62
2021/06/17 10:40:30;;;;;;;3.58;3.15;;;;;;;26.75;42.21;95987.50;1740432;82;21021;-62
2021/06/17 10:42:58;;;;;;;4.45;3.10;;;;;;;26.94;43.85;95972.56;1770210;81;21031;-62
2021/06/17 10:45:39;;;;;;;5.40;3.00;;;;;;;27.17;41.50;95977.03;1740393;82;21110;-62
2021/06/17 10:48:12;;;;;;;5.12;3.20;;;;;;;27.37;39.77;95962.44;1770982;81;21070;-62
2021/06/17 10:50:51;;;;;;;4.78;3.50;;;;;;;27.44;40.96;95966.36;1740604;82;21455;-62
2021/06/17 10:53:32;;;;;;;4.95;3.20;;;;;;;27.57;41.40;95976.61;1770683;81;21070;-62
2021/06/17 10:56:09;;;;;;;4.42;3.47;;;;;;;27.76;43.32;95977.82;1738399;82;21022;-62
2021/06/17 10:58:49;;;;;;;4.60;3.30;;;;;;;27.88;42.39;95974.65;1770945;81;21078;-63
2021/06/17 11:01:39;;;;;;;5.87;3.22;;;;;;;27.92;41.51;95961.19;1740735;82;21548;-62
2021/06/17 11:04:19;;;;;;;4.30;3.33;;;;;;;27.96;41.93;95966.23;1770742;81;21526;-63
2021/06/17 11:07:06;;;;;;;5.42;3.20;;;;;;;27.85;41.64;95962.70;1740493;82;21559;-62
2021/06/17 11:09:57;;;;;;;5.75;3.37;;;;;;;27.83;41.36;95966.38;1770506;81;21504;-62
2021/06/17 11:12:27;;;;;;;4.75;3.10;;;;;;;27.71;41.23;95963.28;1739180;82;21014;-62
2021/06/17 11:14:57;;;;;;;4.60;3.25;;;;;;;27.65;39.92;95965.64;1771015;81;21010;-63
2021/06/17 11:17:33;;;;;;;5.00;3.25;;;;;;;27.54;40.49;95966.48;1740521;82;21026;-63
2021/06/17 11:20:14;;;;;;;4.50;3.33;;;;;;;27.71;43.50;95961.92;1771119;81;21014;-63
2021/06/17 11:22:49;;;;;;;3.27;2.77;;;;;;;27.82;41.90;95958.36;1740753;82;21097;-63
2021/06/17 11:25:25;;;;;;;4.35;3.40;;;;;;;27.91;40.08;95957.62;1770804;81;21022;-62
2021/06/17 11:28:12;;;;;;;4.83;3.62;;;;;;;28.05;42.74;95964.13;1740433;82;21018;-62
2021/06/17 11:30:53;;;;;;;4.50;3.00;;;;;;;28.12;40.29;95949.55;1770958;81;21453;-63
2021/06/17 11:33:26;;;;;;;4.80;3.35;;;;;;;28.16;43.13;95948.81;1740281;82;20983;-63
2021/06/17 11:36:01;;;;;;;4.25;3.30;;;;;;;27.87;40.91;95953.45;1758323;81;21042;-63
2021/06/17 11:38:34;;;;;;;3.92;3.55;;;;;;;27.46;42.21;95959.47;1751617;82;21064;-63
2021/06/17 11:41:15;;;;;;;4.83;3.30;;;;;;;27.21;41.33;95960.56;1729992;83;21519;-62
2021/06/17 11:43:43;;;;;;;4.85;3.55;;;;;;;27.50;42.47;95955.54;1744514;82;21063;-63
2021/06/17 11:46:22;;;;;;;3.65;3.12;;;;;;;27.96;41.11;95949.96;1729386;83;21050;-62
2021/06/17 11:48:51;;;;;;;4.53;3.40;;;;;;;28.32;38.78;95947.88;1746020;82;21509;-63
2021/06/17 11:51:19;;;;;;;4.97;3.60;;;;;;;28.36;39.15;95960.22;1729886;83;20950;-62
2021/06/17 11:53:51;;;;;;;4.42;3.37;;;;;;;27.71;39.54;95971.41;1746005;82;20995;-62
2021/06/17 11:56:27;;;;;;;4.35;3.58;;;;;;;27.15;41.04;95970.02;1730013;83;21029;-63